Time;durP1;ratioP1;P1;durP2;ratioP2;P2;SDS_P1;SDS_P2;PMS_P1;PMS_P2;Temp;Humidity;BMP_temperature;BMP_pressure;BME280_temperature;BME280_humidity;BME280_pressure;Samples;Min_cycle;Max_cycle;Signal;HPM_P1;HPM_P2
2023/08/08 00:01:10;;;;;;;5.20;1.80;;;;;;;17.51;52.29;97607.84;5090845;28;20201;-68
2023/08/08 00:03:36;;;;;;;2.33;1.60;;;;;;;17.48;52.24;97608.22;5089284;28;20794;-69
2023/08/08 00:06:01;;;;;;;6.83;1.90;;;;;;;17.46;52.51;97610.22;5088492;28;20268;-67
2023/08/08 00:08:27;;;;;;;1.97;1.63;;;;;;;17.42;52.32;97609.78;5099037;28;20174;-68
2023/08/08 00:10:52;;;;;;;2.37;1.60;;;;;;;17.42;52.47;97603.66;5093204;28;20208;-67
2023/08/08 00:13:17;;;;;;;2.63;1.70;;;;;;;17.45;52.50;97605.94;5089431;28;20188;-67
2023/08/08 00:15:43;;;;;;;2.33;1.77;;;;;;;17.44;52.66;97601.66;5088245;28;20779;-68
2023/08/08 00:18:08;;;;;;;4.33;1.80;;;;;;;17.44;52.69;97612.25;5084131;28;20296;-66
2023/08/08 00:20:34;;;;;;;2.90;1.70;;;;;;;17.45;52.72;97611.25;5098065;28;20205;-69
2023/08/08 00:22:59;;;;;;;5.47;1.60;;;;;;;17.45;52.65;97616.53;5087939;28;20609;-67
2023/08/08 00:25:25;;;;;;;3.30;1.50;;;;;;;17.41;52.91;97615.25;5085434;28;20174;-68
2023/08/08 00:27:50;;;;;;;2.80;1.97;;;;;;;17.42;52.82;97616.91;5079657;28;20553;-67
2023/08/08 00:30:16;;;;;;;1.50;1.40;;;;;;;17.44;53.10;97609.59;5088723;28;20196;-67
2023/08/08 00:32:41;;;;;;;2.40;1.77;;;;;;;17.48;52.69;97614.34;5095932;28;20272;-67
2023/08/08 00:35:08;;;;;;;2.20;1.60;;;;;;;17.49;52.65;97609.88;5088527;28;20730;-67
2023/08/08 00:37:33;;;;;;;2.53;1.40;;;;;;;17.54;52.37;97604.81;5090084;28;21459;-67
2023/08/08 00:39:58;;;;;;;4.40;1.80;;;;;;;17.58;52.38;97618.53;5098939;28;20420;-67
2023/08/08 00:42:24;;;;;;;2.43;1.80;;;;;;;17.57;52.21;97603.63;5093848;28;20251;-67
2023/08/08 00:44:49;;;;;;;2.60;2.10;;;;;;;17.60;52.46;97604.06;5092800;28;20201;-67
2023/08/08 00:47:15;;;;;;;1.60;1.40;;;;;;;17.62;52.62;97609.19;5090938;28;20601;-67
2023/08/08 00:49:41;;;;;;;3.30;1.60;;;;;;;17.56;52.51;97604.66;5089152;28;20182;-67
2023/08/08 00:52:07;;;;;;;2.77;1.63;;;;;;;17.60;52.58;97597.94;5089443;28;20574;-68
2023/08/08 00:54:33;;;;;;;3.50;1.50;;;;;;;17.61;52.51;97600.44;5093050;28;20451;-67
2023/08/08 00:56:58;;;;;;;1.90;1.80;;;;;;;17.60;52.93;97598.78;5081667;28;20875;-70
2023/08/08 00:59:24;;;;;;;2.40;1.90;;;;;;;17.64;52.50;97597.38;5088554;28;20272;-68
2023/08/08 01:01:49;;;;;;;3.30;1.60;;;;;;;17.62;52.77;97593.28;5094880;28;20193;-69
2023/08/08 01:04:16;;;;;;;2.90;1.90;;;;;;;17.66;52.55;97592.72;5081723;28;20394;-69
2023/08/08 01:06:47;;;;;;;1.83;1.53;;;;;;;17.68;52.43;97591.72;5094204;28;20181;-69
2023/08/08 01:09:26;;;;;;;1.57;1.40;;;;;;;17.66;52.55;97584.75;5088906;28;20469;-70
2023/08/08 01:11:52;;;;;;;2.07;1.73;;;;;;;17.70;52.35;97590.53;5086164;28;20443;-68
2023/08/08 01:14:18;;;;;;;2.30;1.87;;;;;;;17.70;52.43;97597.66;5084036;28;20424;-69
2023/08/08 01:16:44;;;;;;;2.53;1.60;;;;;;;17.68;52.58;97587.25;5079648;28;20525;-69
2023/08/08 01:19:12;;;;;;;1.77;1.60;;;;;;;17.68;52.63;97584.59;5083413;28;20435;-69
2023/08/08 01:21:40;;;;;;;1.83;1.50;;;;;;;17.68;52.71;97591.72;5094922;28;20554;-70
2023/08/08 01:24:17;;;;;;;2.87;1.50;;;;;;;17.67;52.85;97596.19;5089093;28;20416;-67
2023/08/08 01:26:43;;;;;;;3.13;1.80;;;;;;;17.64;52.73;97592.06;5091471;28;21096;-67
2023/08/08 01:29:08;;;;;;;4.37;1.50;;;;;;;17.66;52.82;97590.06;5092698;28;20442;-67
2023/08/08 01:31:34;;;;;;;1.60;1.50;;;;;;;17.64;52.84;97585.97;5089542;28;20232;-70
2023/08/08 01:33:59;;;;;;;1.70;1.53;;;;;;;17.63;52.96;97584.31;5093890;28;20265;-69
2023/08/08 01:36:30;;;;;;;1.50;1.40;;;;;;;17.60;53.18;97568.78;5086143;28;20259;-68
2023/08/08 01:39:02;;;;;;;1.70;1.60;;;;;;;17.57;53.18;97575.28;5071303;28;20634;-69
2023/08/08 01:41:27;;;;;;;1.70;1.60;;;;;;;17.53;53.17;97574.03;5089381;28;20447;-69
2023/08/08 01:43:53;;;;;;;4.17;1.70;;;;;;;17.55;53.26;97576.50;5058700;28;20424;-69
2023/08/08 01:46:19;;;;;;;1.70;1.60;;;;;;;17.59;53.25;97578.59;5084284;28;20826;-69
2023/08/08 01:48:46;;;;;;;5.97;1.40;;;;;;;17.59;53.36;97573.28;5078162;28;20631;-69
2023/08/08 01:51:11;;;;;;;2.13;1.70;;;;;;;17.59;53.32;97565.34;5081789;28;20211;-67
2023/08/08 01:53:37;;;;;;;2.03;1.47;;;;;;;17.58;53.46;97571.63;5092133;28;20487;-69
2023/08/08 01:56:02;;;;;;;2.47;1.63;;;;;;;17.61;53.33;97571.28;5083804;28;20231;-69
2023/08/08 01:58:28;;;;;;;3.00;1.80;;;;;;;17.55;53.23;97572.00;5079291;28;20216;-69
2023/08/08 02:00:53;;;;;;;3.33;1.50;;;;;;;17.59;53.28;97575.94;5082886;28;20738;-69
2023/08/08 02:03:19;;;;;;;1.70;1.60;;;;;;;17.57;53.41;97575.28;5087340;28;20241;-70
2023/08/08 02:05:44;;;;;;;2.40;1.80;;;;;;;17.52;53.51;97576.88;5091756;28;20239;-69
2023/08/08 02:08:10;;;;;;;1.60;1.30;;;;;;;17.52;53.69;97574.22;5100754;28;20261;-69
2023/08/08 02:10:35;;;;;;;2.07;1.40;;;;;;;17.45;53.81;97564.34;5082717;28;20212;-68
2023/08/08 02:13:00;;;;;;;1.83;1.73;;;;;;;17.48;53.64;97568.47;5088625;28;20272;-69
2023/08/08 02:15:26;;;;;;;2.33;1.80;;;;;;;17.47;53.77;97558.91;5093399;28;20268;-70
2023/08/08 02:17:52;;;;;;;2.07;1.50;;;;;;;17.44;53.84;97564.56;5094849;28;20288;-68
2023/08/08 02:20:18;;;;;;;1.70;1.60;;;;;;;17.47;53.79;97558.91;5088162;28;20219;-69
2023/08/08 02:22:43;;;;;;;2.27;1.60;;;;;;;17.49;53.78;97552.38;5077869;28;20944;-68
2023/08/08 02:25:09;;;;;;;3.47;1.70;;;;;;;17.49;53.85;97556.88;5088458;28;20668;-68
2023/08/08 02:27:34;;;;;;;2.33;1.60;;;;;;;17.43;54.01;97558.44;5079015;28;20779;-67
2023/08/08 02:30:00;;;;;;;5.23;1.50;;;;;;;17.45;53.96;97555.59;5083947;28;20218;-68
2023/08/08 02:32:25;;;;;;;2.10;1.90;;;;;;;17.42;53.92;97553.31;5094144;28;20212;-68
2023/08/08 02:34:50;;;;;;;1.80;1.70;;;;;;;17.43;54.01;97558.44;5088966;28;20181;-68
2023/08/08 02:37:16;;;;;;;1.53;1.43;;;;;;;17.39;54.27;97557.19;5096610;28;20197;-67
2023/08/08 02:39:43;;;;;;;1.63;1.53;;;;;;;17.37;54.21;97558.38;5087183;28;20209;-68
2023/08/08 02:42:08;;;;;;;2.03;1.50;;;;;;;17.37;54.14;97567.13;5091950;28;20197;-69
2023/08/08 02:44:34;;;;;;;2.97;1.60;;;;;;;17.39;54.26;97556.38;5085728;28;20481;-67
2023/08/08 02:46:59;;;;;;;1.70;1.50;;;;;;;17.33;54.15;97556.09;5089073;28;20256;-67
2023/08/08 02:49:25;;;;;;;1.77;1.57;;;;;;;17.25;54.41;97558.88;5082912;28;20711;-67
2023/08/08 02:51:50;;;;;;;1.70;1.60;;;;;;;17.27;54.48;97554.19;5088921;28;20202;-67
2023/08/08 02:54:16;;;;;;;1.90;1.80;;;;;;;17.28;54.32;97552.38;5073683;28;20738;-69
2023/08/08 02:56:41;;;;;;;1.77;1.60;;;;;;;17.28;54.38;97550.53;5080494;28;20653;-69
2023/08/08 02:59:06;;;;;;;2.80;1.90;;;;;;;17.23;54.58;97547.63;5053045;28;20251;-66
2023/08/08 03:01:32;;;;;;;1.87;1.30;;;;;;;17.27;54.50;97551.53;5085046;28;20738;-67
2023/08/08 03:03:58;;;;;;;3.67;1.60;;;;;;;17.29;54.24;97552.16;5087435;28;20631;-68
2023/08/08 03:06:23;;;;;;;2.80;1.47;;;;;;;17.27;54.41;97556.81;5084055;28;20204;-68
2023/08/08 03:08:48;;;;;;;2.03;1.57;;;;;;;17.26;54.59;97555.22;5085408;28;20201;-67
2023/08/08 03:11:14;;;;;;;1.63;1.53;;;;;;;17.25;54.84;97558.03;5087191;28;20284;-68
2023/08/08 03:13:39;;;;;;;1.93;1.73;;;;;;;17.24;54.63;97559.88;5052880;28;20260;-68
2023/08/08 03:16:05;;;;;;;2.57;1.97;;;;;;;17.24;54.69;97556.38;5080637;28;20212;-68
2023/08/08 03:18:30;;;;;;;5.80;2.10;;;;;;;17.17;54.67;97553.66;5081020;28;20229;-68
2023/08/08 03:20:56;;;;;;;3.43;1.53;;;;;;;17.16;54.95;97547.56;5090046;28;20682;-68
2023/08/08 03:23:23;;;;;;;2.90;1.70;;;;;;;17.12;55.16;97550.78;5080489;28;20205;-68
2023/08/08 03:25:48;;;;;;;2.10;1.60;;;;;;;17.10;54.98;97548.28;5081408;28;20173;-67
2023/08/08 03:28:14;;;;;;;2.00;1.80;;;;;;;17.13;55.10;97552.41;5083335;28;20414;-68
2023/08/08 03:30:39;;;;;;;2.10;1.90;;;;;;;17.11;55.02;97559.72;5086939;28;20183;-69
2023/08/08 03:33:05;;;;;;;4.37;1.63;;;;;;;17.09;55.01;97559.88;5088643;28;20173;-68
2023/08/08 03:35:30;;;;;;;3.50;1.90;;;;;;;17.11;55.28;97555.22;5081627;28;20553;-70
2023/08/08 03:37:55;;;;;;;3.50;1.90;;;;;;;17.10;55.19;97558.06;5088986;28;20635;-69
2023/08/08 03:40:21;;;;;;;2.63;1.60;;;;;;;17.10;55.16;97552.78;5089728;28;20265;-69
2023/08/08 03:42:46;;;;;;;2.60;1.67;;;;;;;17.13;55.21;97555.06;5087274;28;20186;-69
2023/08/08 03:45:12;;;;;;;4.73;2.00;;;;;;;17.13;55.22;97553.22;5091029;28;20283;-70
2023/08/08 03:47:37;;;;;;;1.60;1.50;;;;;;;17.12;55.51;97550.78;5095807;28;20173;-69
2023/08/08 03:50:04;;;;;;;4.97;1.77;;;;;;;17.15;55.60;97550.38;5089538;28;20694;-69
2023/08/08 03:52:30;;;;;;;2.47;1.63;;;;;;;17.13;55.74;97552.41;5088097;28;20213;-69
2023/08/08 03:54:55;;;;;;;6.23;1.90;;;;;;;17.14;55.70;97557.50;5084574;28;20419;-68
2023/08/08 03:57:20;;;;;;;2.10;1.73;;;;;;;17.15;55.82;97551.22;5096175;28;20232;-69
2023/08/08 03:59:46;;;;;;;4.80;2.00;;;;;;;17.18;55.92;97552.66;5088147;28;20210;-69
2023/08/08 04:02:11;;;;;;;1.87;1.67;;;;;;;17.22;55.78;97550.44;5083393;28;20285;-69
2023/08/08 04:04:38;;;;;;;2.07;1.80;;;;;;;17.24;56.00;97556.38;5081290;28;20307;-69
2023/08/08 04:07:04;;;;;;;3.20;1.60;;;;;;;17.23;55.92;97562.69;5086303;28;20185;-69
2023/08/08 04:09:29;;;;;;;2.33;1.70;;;;;;;17.24;55.73;97553.75;5086238;28;20419;-68
2023/08/08 04:11:55;;;;;;;1.77;1.67;;;;;;;17.22;56.03;97559.22;5093865;28;20692;-68
2023/08/08 04:14:20;;;;;;;1.50;1.40;;;;;;;17.25;55.85;97556.22;5096548;28;20649;-68
2023/08/08 04:16:45;;;;;;;2.50;1.80;;;;;;;17.27;55.93;97559.47;5085311;28;20276;-69
2023/08/08 04:19:11;;;;;;;2.20;1.80;;;;;;;17.30;55.89;97558.31;5089070;28;20178;-69
2023/08/08 04:21:36;;;;;;;2.03;1.50;;;;;;;17.32;55.80;97558.94;5082778;28;20195;-68
2023/08/08 04:24:02;;;;;;;2.60;1.63;;;;;;;17.32;55.83;97556.28;5088715;28;20609;-69
2023/08/08 04:26:27;;;;;;;3.53;1.67;;;;;;;17.25;55.63;97556.22;5086338;28;20688;-68
2023/08/08 04:28:53;;;;;;;1.70;1.60;;;;;;;17.23;55.72;97552.09;5091679;28;20206;-69
2023/08/08 04:31:18;;;;;;;1.80;1.70;;;;;;;17.21;55.89;97552.28;5091002;28;20247;-69
2023/08/08 04:33:44;;;;;;;4.80;1.70;;;;;;;17.14;55.97;97546.09;5089443;28;20173;-68
2023/08/08 04:36:10;;;;;;;1.77;1.60;;;;;;;17.12;55.65;97551.56;5085311;28;20748;-68
2023/08/08 04:38:35;;;;;;;9.13;1.80;;;;;;;17.13;55.65;97550.56;5092808;28;20467;-69
2023/08/08 04:41:01;;;;;;;2.50;1.83;;;;;;;17.16;55.73;97557.31;5089501;28;20280;-70
2023/08/08 04:43:28;;;;;;;2.63;1.70;;;;;;;17.16;55.53;97557.31;5092029;28;20723;-67
2023/08/08 04:45:53;;;;;;;2.73;1.50;;;;;;;17.18;55.36;97560.59;5080577;28;20178;-69
2023/08/08 04:48:19;;;;;;;3.53;2.07;;;;;;;17.15;55.39;97560.97;5087843;28;20507;-68
2023/08/08 04:50:46;;;;;;;2.10;1.63;;;;;;;17.16;55.29;97568.75;5094479;28;22178;-68
2023/08/08 04:53:11;;;;;;;2.47;1.60;;;;;;;17.18;55.16;97561.44;5086609;28;20173;-68
2023/08/08 04:55:37;;;;;;;2.00;1.50;;;;;;;17.12;55.45;97562.16;5086324;28;20553;-67
2023/08/08 04:58:02;;;;;;;2.33;1.37;;;;;;;17.16;55.44;97575.84;5088575;28;20205;-68
2023/08/08 05:00:28;;;;;;;4.03;1.80;;;;;;;17.17;55.36;97567.75;5086146;28;20181;-68
2023/08/08 05:02:54;;;;;;;1.70;1.57;;;;;;;17.19;55.20;97567.53;5088941;28;20273;-66
2023/08/08 05:05:19;;;;;;;3.50;1.50;;;;;;;17.20;55.07;97571.84;5087795;28;20257;-67
2023/08/08 05:07:44;;;;;;;1.77;1.67;;;;;;;17.17;55.05;97566.91;5090174;28;20170;-68
2023/08/08 05:10:10;;;;;;;1.87;1.50;;;;;;;17.24;55.19;97567.81;5090526;28;20223;-69
2023/08/08 05:12:35;;;;;;;3.60;2.10;;;;;;;17.21;55.14;97570.84;5088088;28;20795;-67
2023/08/08 05:15:01;;;;;;;2.70;1.80;;;;;;;17.31;54.96;97558.09;5085687;28;20182;-68
2023/08/08 05:17:26;;;;;;;2.00;1.80;;;;;;;17.38;54.85;97560.03;5082592;28;20585;-70
2023/08/08 05:19:52;;;;;;;3.53;1.70;;;;;;;17.39;54.82;97554.53;5088090;28;20189;-68
2023/08/08 05:22:17;;;;;;;1.73;1.47;;;;;;;17.47;54.52;97559.69;5088728;28;20208;-68
2023/08/08 05:24:43;;;;;;;2.30;1.60;;;;;;;17.51;54.63;97554.88;5079431;28;20658;-69
2023/08/08 05:27:09;;;;;;;2.70;2.00;;;;;;;17.55;54.56;97558.75;5088699;28;20594;-68
2023/08/08 05:29:37;;;;;;;2.60;1.50;;;;;;;17.65;54.51;97553.16;5090233;28;20189;-68
2023/08/08 05:32:06;;;;;;;1.73;1.63;;;;;;;17.70;54.26;97552.59;5086405;28;20539;-69
2023/08/08 05:34:32;;;;;;;4.23;1.60;;;;;;;17.69;54.32;97548.28;5094617;28;20495;-68
2023/08/08 05:36:57;;;;;;;2.80;1.30;;;;;;;17.73;54.08;97549.56;5088879;28;20926;-69
2023/08/08 05:39:23;;;;;;;2.27;1.30;;;;;;;17.73;53.70;97550.38;5087400;28;20610;-69
2023/08/08 05:41:48;;;;;;;1.80;1.40;;;;;;;17.79;53.90;97546.13;5085530;28;20225;-68
2023/08/08 05:44:13;;;;;;;1.60;1.47;;;;;;;17.84;53.73;97546.41;5081185;28;20244;-68
2023/08/08 05:46:39;;;;;;;3.67;1.70;;;;;;;17.94;53.78;97546.88;5079350;28;20257;-67
2023/08/08 05:49:04;;;;;;;7.13;1.90;;;;;;;18.01;53.80;97554.94;5078733;28;20269;-69
2023/08/08 05:51:30;;;;;;;3.33;1.90;;;;;;;18.14;53.69;97554.25;5079975;28;20378;-70
2023/08/08 05:53:55;;;;;;;3.70;1.80;;;;;;;18.22;53.45;97559.38;5083810;28;20208;-68
2023/08/08 05:56:21;;;;;;;2.40;1.40;;;;;;;18.35;53.22;97560.50;5088736;28;20650;-69
2023/08/08 05:58:46;;;;;;;2.07;1.73;;;;;;;18.39;52.55;97559.91;5084515;28;20190;-69
2023/08/08 06:01:12;;;;;;;1.50;1.40;;;;;;;18.52;52.37;97561.84;5087590;28;20206;-69
2023/08/08 06:03:37;;;;;;;1.67;1.57;;;;;;;18.61;51.93;97567.00;5080714;28;20177;-68
2023/08/08 06:06:03;;;;;;;6.43;1.87;;;;;;;18.73;51.96;97562.78;5082920;28;20227;-68
2023/08/08 06:08:29;;;;;;;2.60;1.77;;;;;;;18.87;51.60;97568.97;5087924;28;20673;-68
2023/08/08 06:10:54;;;;;;;8.00;1.50;;;;;;;19.01;51.45;97564.59;5083397;28;20439;-67
2023/08/08 06:13:20;;;;;;;6.10;1.63;;;;;;;19.03;51.15;97568.69;5081987;28;20209;-67
2023/08/08 06:15:45;;;;;;;4.07;1.73;;;;;;;19.17;50.80;97566.88;5081586;28;20280;-67
2023/08/08 06:18:10;;;;;;;2.53;1.67;;;;;;;19.33;50.28;97556.94;5085085;28;20287;-67
2023/08/08 06:20:36;;;;;;;2.43;1.70;;;;;;;19.52;50.30;97560.66;5076219;28;20285;-66
2023/08/08 06:23:01;;;;;;;2.77;1.40;;;;;;;19.59;49.59;97547.38;5052840;28;20654;-67
2023/08/08 06:25:28;;;;;;;1.67;1.13;;;;;;;19.74;49.75;97555.16;5080428;28;20760;-69
2023/08/08 06:27:53;;;;;;;2.37;1.60;;;;;;;19.88;49.17;97550.72;5084890;28;20180;-68
2023/08/08 06:30:19;;;;;;;1.97;1.60;;;;;;;19.97;49.09;97549.50;5081152;28;20445;-68
2023/08/08 06:32:44;;;;;;;2.93;1.43;;;;;;;20.10;48.55;97552.16;5085518;28;20201;-68
2023/08/08 06:35:10;;;;;;;5.50;1.57;;;;;;;20.21;48.30;97557.88;5078864;28;20272;-69
2023/08/08 06:37:35;;;;;;;2.30;1.67;;;;;;;20.19;48.37;97551.94;5087788;28;20194;-69
2023/08/08 06:40:01;;;;;;;4.40;1.80;;;;;;;20.23;47.91;97556.63;5091681;28;20732;-69
2023/08/08 06:42:26;;;;;;;2.40;1.67;;;;;;;20.28;48.01;97558.72;5089820;28;20593;-69
2023/08/08 06:44:52;;;;;;;1.50;1.40;;;;;;;20.29;48.13;97554.19;5085250;28;20572;-69
2023/08/08 06:47:17;;;;;;;3.93;1.70;;;;;;;20.29;47.77;97552.34;5087775;28;20174;-68
2023/08/08 06:49:42;;;;;;;4.20;1.50;;;;;;;20.32;47.52;97554.59;5086256;28;20214;-68
2023/08/08 06:52:08;;;;;;;2.97;1.60;;;;;;;20.40;47.64;97551.75;5088435;28;20280;-67
2023/08/08 06:54:33;;;;;;;4.50;1.60;;;;;;;20.59;47.54;97551.88;5092424;28;20174;-67
2023/08/08 06:56:59;;;;;;;4.30;1.40;;;;;;;20.65;47.07;97548.41;5087352;28;20201;-68
2023/08/08 06:59:25;;;;;;;2.70;1.60;;;;;;;20.81;47.00;97549.00;5088009;28;20182;-68
2023/08/08 07:01:51;;;;;;;1.80;1.27;;;;;;;20.97;46.74;97545.06;5080749;28;20208;-67
2023/08/08 07:04:17;;;;;;;1.97;1.30;;;;;;;21.14;46.97;97556.88;5083313;28;20420;-68
2023/08/08 07:06:44;;;;;;;1.60;1.40;;;;;;;21.07;45.99;97557.91;5084801;28;20231;-68
2023/08/08 07:09:14;;;;;;;3.57;1.57;;;;;;;21.23;46.41;97548.66;5089514;28;20924;-69
2023/08/08 07:11:40;;;;;;;2.40;1.43;;;;;;;21.38;46.18;97546.50;5080998;28;20987;-68
2023/08/08 07:14:05;;;;;;;3.03;1.47;;;;;;;21.54;45.76;97545.19;5088076;28;20461;-68
2023/08/08 07:16:30;;;;;;;2.43;1.60;;;;;;;21.72;45.50;97547.16;5081012;28;20577;-68
2023/08/08 07:18:56;;;;;;;3.40;1.80;;;;;;;21.85;45.00;97554.22;5085869;28;20299;-69
2023/08/08 07:21:21;;;;;;;2.77;1.67;;;;;;;22.00;44.50;97547.75;5085223;28;20205;-68
2023/08/08 07:23:47;;;;;;;2.10;1.43;;;;;;;22.10;44.37;97542.75;5081252;28;20264;-68
2023/08/08 07:26:12;;;;;;;3.87;1.60;;;;;;;22.20;43.72;97543.06;5068685;28;20181;-69
2023/08/08 07:28:38;;;;;;;2.57;1.63;;;;;;;22.17;43.02;97537.34;5081481;28;20717;-67
2023/08/08 07:31:03;;;;;;;2.73;1.60;;;;;;;22.28;43.23;97541.16;5084988;28;20697;-69
2023/08/08 07:33:28;;;;;;;2.70;1.50;;;;;;;22.39;42.97;97535.09;5083830;28;20184;-68
2023/08/08 07:35:54;;;;;;;1.80;1.63;;;;;;;22.57;42.64;97541.53;5077368;28;20189;-68
2023/08/08 07:38:19;;;;;;;5.60;1.77;;;;;;;22.74;42.37;97539.91;5079568;28;20745;-68
2023/08/08 07:40:45;;;;;;;3.93;1.60;;;;;;;22.93;42.47;97539.91;5083571;28;20204;-67
2023/08/08 07:43:11;;;;;;;1.70;1.60;;;;;;;23.11;41.79;97536.41;5090522;28;20185;-69
2023/08/08 07:45:37;;;;;;;6.80;1.57;;;;;;;23.17;41.06;97530.97;5085676;28;20439;-68
2023/08/08 07:48:03;;;;;;;2.50;1.47;;;;;;;23.36;40.89;97538.97;5081648;28;20185;-69
2023/08/08 07:50:29;;;;;;;3.10;1.67;;;;;;;23.52;40.49;97532.16;5083091;28;20179;-68
2023/08/08 07:52:54;;;;;;;3.13;1.30;;;;;;;23.57;40.11;97529.63;5086640;28;20812;-69
2023/08/08 07:55:20;;;;;;;3.10;1.33;;;;;;;23.63;39.83;97533.25;5086065;28;20214;-69
2023/08/08 07:57:45;;;;;;;1.87;1.33;;;;;;;23.72;39.84;97531.88;5087117;28;20229;-69
2023/08/08 08:00:12;;;;;;;2.50;1.40;;;;;;;23.78;38.42;97530.97;5087335;28;20178;-68
2023/08/08 08:02:42;;;;;;;2.60;1.50;;;;;;;23.84;38.39;97523.03;5088582;28;20208;-69
2023/08/08 08:05:08;;;;;;;7.87;1.80;;;;;;;23.77;38.50;97525.81;5086746;28;20731;-69
2023/08/08 08:07:34;;;;;;;2.13;1.47;;;;;;;23.53;37.90;97522.28;5090474;28;20423;-69
2023/08/08 08:10:01;;;;;;;5.00;1.50;;;;;;;23.53;38.38;97520.41;5091988;28;20272;-69
2023/08/08 08:12:26;;;;;;;1.70;1.40;;;;;;;23.65;38.41;97519.63;5092583;28;20648;-69
2023/08/08 08:14:52;;;;;;;1.60;1.50;;;;;;;23.73;38.91;97516.66;5088930;28;20508;-68
2023/08/08 08:17:17;;;;;;;4.57;1.43;;;;;;;23.67;38.46;97523.72;5087158;28;20198;-68
2023/08/08 08:19:43;;;;;;;4.17;1.70;;;;;;;23.71;38.51;97524.88;5083006;28;20178;-70
2023/08/08 08:22:08;;;;;;;3.27;1.20;;;;;;;23.70;38.29;97520.56;5090295;28;20638;-67
2023/08/08 08:24:34;;;;;;;4.73;1.60;;;;;;;23.68;38.31;97520.00;5090093;28;20197;-68
2023/08/08 08:27:00;;;;;;;3.70;1.60;;;;;;;23.67;38.36;97523.72;5091106;28;20181;-68
2023/08/08 08:29:25;;;;;;;2.47;1.10;;;;;;;23.53;38.28;97520.41;5093038;28;20501;-68
2023/08/08 08:31:51;;;;;;;2.40;1.37;;;;;;;23.43;38.25;97531.69;5094606;28;20337;-68
2023/08/08 08:34:16;;;;;;;4.53;1.70;;;;;;;23.60;38.48;97528.34;5090111;28;20180;-69
2023/08/08 08:36:41;;;;;;;3.77;1.20;;;;;;;23.64;38.44;97526.84;5089689;28;20281;-70
2023/08/08 08:39:07;;;;;;;2.47;1.33;;;;;;;23.71;38.50;97530.22;5090536;28;20217;-68
2023/08/08 08:41:35;;;;;;;3.17;1.27;;;;;;;23.63;38.57;97522.53;5089787;28;20194;-70
2023/08/08 08:44:01;;;;;;;1.73;1.40;;;;;;;23.49;38.55;97527.28;5090291;28;20186;-70
2023/08/08 08:46:27;;;;;;;5.53;1.40;;;;;;;23.54;39.03;97526.59;5091220;28;20836;-68
2023/08/08 08:48:54;;;;;;;3.63;1.27;;;;;;;23.72;39.04;97521.16;5089676;28;20192;-69
2023/08/08 08:51:20;;;;;;;4.17;1.47;;;;;;;23.85;38.92;97520.16;5089956;28;20436;-67
2023/08/08 08:53:46;;;;;;;2.03;1.30;;;;;;;24.05;39.61;97519.84;5088718;28;20419;-69
2023/08/08 08:56:14;;;;;;;1.97;1.47;;;;;;;24.12;37.50;97516.25;5089203;28;20197;-68
2023/08/08 08:58:40;;;;;;;4.80;1.43;;;;;;;24.30;36.68;97515.31;5090256;28;20546;-69
2023/08/08 09:01:05;;;;;;;1.73;1.10;;;;;;;24.48;36.38;97514.34;5096313;28;20431;-68
2023/08/08 09:03:31;;;;;;;2.70;1.33;;;;;;;24.69;36.79;97515.66;5087529;28;20480;-69
2023/08/08 09:05:56;;;;;;;1.80;1.27;;;;;;;24.86;37.16;97513.03;5085286;28;20193;-68
2023/08/08 09:08:22;;;;;;;4.77;1.73;;;;;;;24.83;36.45;97508.16;5089714;28;20214;-68
2023/08/08 09:10:47;;;;;;;3.47;1.60;;;;;;;24.69;36.25;97503.09;5089652;28;20704;-67
2023/08/08 09:13:13;;;;;;;2.63;1.60;;;;;;;24.59;36.42;97497.44;5087410;28;20174;-69
2023/08/08 09:15:39;;;;;;;3.23;1.53;;;;;;;24.65;36.63;97507.25;5089364;28;20213;-69
2023/08/08 09:18:07;;;;;;;2.13;1.33;;;;;;;24.70;37.17;97498.53;5087383;28;20670;-68
2023/08/08 09:20:32;;;;;;;7.07;1.33;;;;;;;24.77;37.20;97495.72;5088095;28;20412;-67
2023/08/08 09:22:58;;;;;;;2.57;1.40;;;;;;;24.82;36.27;97503.88;5087563;28;20915;-69
2023/08/08 09:25:23;;;;;;;3.20;1.40;;;;;;;25.02;36.02;97502.63;5089121;28;20664;-69
2023/08/08 09:27:51;;;;;;;4.13;1.73;;;;;;;25.11;35.57;97514.59;5090458;28;20219;-69
2023/08/08 09:30:16;;;;;;;5.97;1.77;;;;;;;25.05;34.81;97510.19;5087404;28;20215;-69
2023/08/08 09:32:43;;;;;;;2.60;1.40;;;;;;;25.08;34.03;97509.69;5101376;28;20534;-70
2023/08/08 09:35:10;;;;;;;1.63;1.20;;;;;;;25.11;33.51;97502.00;5096330;28;20188;-69
2023/08/08 09:37:35;;;;;;;2.80;1.30;;;;;;;25.22;33.59;97503.00;5090771;28;20456;-67
2023/08/08 09:40:03;;;;;;;3.00;1.30;;;;;;;25.40;33.74;97495.81;5088477;28;20919;-69
2023/08/08 09:42:29;;;;;;;3.37;1.57;;;;;;;25.45;33.61;97482.53;5089967;28;20578;-69
2023/08/08 09:44:59;;;;;;;2.10;1.67;;;;;;;25.11;33.54;97498.50;5092786;28;20787;-69
2023/08/08 09:47:24;;;;;;;3.30;1.40;;;;;;;25.12;33.25;97494.78;5082430;28;20440;-67
2023/08/08 09:49:50;;;;;;;2.60;1.33;;;;;;;25.07;33.28;97486.66;5088654;28;20486;-69
2023/08/08 09:52:16;;;;;;;3.67;1.40;;;;;;;25.01;33.53;97493.78;5088228;28;20204;-69
2023/08/08 09:54:42;;;;;;;2.80;1.60;;;;;;;24.90;33.96;97483.88;5082371;28;20499;-69
2023/08/08 09:57:08;;;;;;;3.60;1.33;;;;;;;24.88;33.96;97494.84;5082422;28;20198;-68
2023/08/08 09:59:35;;;;;;;2.53;1.60;;;;;;;24.85;33.57;97484.59;5084949;28;20243;-69
2023/08/08 10:02:01;;;;;;;2.40;1.40;;;;;;;24.88;34.34;97480.66;5082369;28;20210;-68
2023/08/08 10:04:27;;;;;;;3.87;1.63;;;;;;;24.76;34.56;97481.47;5085306;28;20497;-68
2023/08/08 10:06:52;;;;;;;4.70;1.30;;;;;;;24.53;34.40;97482.34;5088045;28;20499;-68
2023/08/08 10:09:18;;;;;;;1.90;1.23;;;;;;;24.66;34.31;97479.41;5090243;28;20173;-68
2023/08/08 10:11:44;;;;;;;2.00;1.30;;;;;;;24.88;34.31;97478.78;5088229;28;20198;-68
2023/08/08 10:14:11;;;;;;;4.10;1.37;;;;;;;24.97;34.06;97473.84;5086747;28;20186;-68
2023/08/08 10:16:39;;;;;;;2.03;1.13;;;;;;;24.98;33.97;97472.81;5086338;28;20427;-69
2023/08/08 10:19:05;;;;;;;1.73;1.47;;;;;;;24.94;34.34;97466.28;5078643;28;20479;-68
2023/08/08 10:21:35;;;;;;;2.60;1.53;;;;;;;24.86;33.97;97475.50;5086826;28;20435;-69
2023/08/08 10:24:04;;;;;;;1.60;1.20;;;;;;;24.79;34.88;97475.66;5084987;28;20193;-68
2023/08/08 10:26:30;;;;;;;2.20;1.30;;;;;;;24.73;34.82;97487.34;5086781;28;20770;-68
2023/08/08 10:28:57;;;;;;;1.80;1.10;;;;;;;24.70;33.85;97485.13;5085456;28;20416;-69
2023/08/08 10:31:22;;;;;;;1.80;1.30;;;;;;;24.64;32.93;97473.47;5076795;28;20204;-70
2023/08/08 10:33:48;;;;;;;4.00;1.17;;;;;;;24.44;33.65;97481.09;5088589;28;20799;-69
2023/08/08 10:36:14;;;;;;;1.17;1.00;;;;;;;24.57;33.88;97480.00;5082665;28;20714;-69
2023/08/08 10:38:46;;;;;;;1.87;1.20;;;;;;;24.63;33.69;97476.38;5080365;28;20194;-69
2023/08/08 10:41:17;;;;;;;2.70;1.40;;;;;;;24.95;33.10;97482.13;5085169;28;20197;-69
2023/08/08 10:43:52;;;;;;;2.07;1.20;;;;;;;25.03;31.85;97477.44;5077745;28;20426;-67
2023/08/08 10:46:26;;;;;;;2.40;1.30;;;;;;;25.05;31.40;97472.66;5080160;28;20819;-69
2023/08/08 10:48:59;;;;;;;2.00;1.40;;;;;;;25.38;30.57;97466.56;5080668;28;20415;-69
2023/08/08 10:51:39;;;;;;;3.50;1.27;;;;;;;25.50;30.90;97461.16;5077321;28;21003;-69
2023/08/08 10:54:13;;;;;;;2.37;1.30;;;;;;;25.43;30.83;97465.88;5076368;28;20426;-68
2023/08/08 10:56:38;;;;;;;1.90;1.30;;;;;;;25.55;30.07;97466.63;5076499;28;20807;-70
2023/08/08 10:59:18;;;;;;;4.07;1.60;;;;;;;25.49;30.04;97464.88;5084287;28;20460;-69
2023/08/08 11:01:48;;;;;;;1.50;1.10;;;;;;;25.53;30.81;97462.53;5084909;28;20201;-68
2023/08/08 11:04:15;;;;;;;1.80;1.40;;;;;;;25.59;30.82;97459.69;5082523;28;20455;-68
2023/08/08 11:06:41;;;;;;;1.57;1.10;;;;;;;25.83;30.44;97458.72;5082900;28;21059;-69
2023/08/08 11:09:07;;;;;;;2.90;1.67;;;;;;;26.20;30.10;97456.34;5084430;28;20427;-70
2023/08/08 11:11:40;;;;;;;2.33;1.20;;;;;;;26.60;29.58;97456.28;5084809;28;20686;-67
2023/08/08 11:14:13;;;;;;;1.77;1.13;;;;;;;26.92;29.11;97455.63;5081381;28;20214;-68
2023/08/08 11:16:39;;;;;;;1.27;1.03;;;;;;;27.26;28.95;97450.03;5086037;28;20825;-69
2023/08/08 11:19:04;;;;;;;1.67;1.07;;;;;;;27.42;28.33;97448.28;5079461;28;20453;-70
2023/08/08 11:21:33;;;;;;;2.77;1.00;;;;;;;27.64;26.17;97450.94;5085799;28;20202;-70
2023/08/08 11:23:58;;;;;;;1.23;0.93;;;;;;;27.67;25.23;97453.13;5083664;28;20182;-70
2023/08/08 11:26:25;;;;;;;3.20;1.30;;;;;;;27.41;25.91;97457.44;5083374;28;20573;-70
2023/08/08 11:28:51;;;;;;;1.30;1.00;;;;;;;26.93;26.38;97451.88;5085249;28;20185;-70